Time;durP1;ratioP1;P1;durP2;ratioP2;P2;SDS_P1;SDS_P2;PMS_P1;PMS_P2;Temp;Humidity;BMP_temperature;BMP_pressure;BME280_temperature;BME280_humidity;BME280_pressure;Samples;Min_cycle;Max_cycle;Signal;HPM_P1;HPM_P2
2023/12/08 00:01:55;;;;;;;11.07;7.60;;;0.00;99.90;;;;;;6310293;22;20152;-88
2023/12/08 00:04:21;;;;;;;11.87;7.80;;;0.00;99.90;;;;;;6283234;22;20152;-87
2023/12/08 00:06:47;;;;;;;11.50;7.77;;;0.00;99.90;;;;;;6282978;22;20191;-89
2023/12/08 00:09:12;;;;;;;12.60;8.37;;;0.00;99.90;;;;;;6283093;22;20152;-87
2023/12/08 00:11:39;;;;;;;10.50;8.00;;;-0.10;99.90;;;;;;6282944;22;20163;-85
2023/12/08 00:14:05;;;;;;;14.83;8.47;;;-0.10;99.90;;;;;;6283192;22;20148;-85
2023/12/08 00:16:31;;;;;;;11.93;8.43;;;0.00;99.90;;;;;;6208357;22;20190;-83
2023/12/08 00:18:56;;;;;;;14.30;9.43;;;-0.10;99.90;;;;;;6273899;22;20179;-83
2023/12/08 00:21:25;;;;;;;12.77;8.97;;;-0.10;99.90;;;;;;6278334;22;20153;-84
2023/12/08 00:23:51;;;;;;;13.10;9.43;;;-0.10;99.90;;;;;;6276836;22;20555;-84
2023/12/08 00:26:17;;;;;;;13.00;9.00;;;-0.10;99.90;;;;;;6278141;22;20207;-85
2023/12/08 00:28:44;;;;;;;16.43;9.70;;;-0.10;99.90;;;;;;6251327;22;20579;-83
2023/12/08 00:31:10;;;;;;;14.90;9.87;;;-0.10;99.90;;;;;;6276597;22;20152;-84
2023/12/08 00:33:36;;;;;;;16.90;11.27;;;-0.10;99.90;;;;;;6278017;22;20199;-84
2023/12/08 00:36:11;;;;;;;13.77;10.33;;;-0.10;99.90;;;;;;6251153;22;20571;-85
2023/12/08 00:38:36;;;;;;;13.20;10.27;;;0.00;99.90;;;;;;6251216;22;20151;-84
2023/12/08 00:41:02;;;;;;;15.57;10.87;;;0.00;99.90;;;;;;6277819;22;20145;-86
2023/12/08 00:43:28;;;;;;;16.37;10.77;;;0.00;99.90;;;;;;6278479;22;20159;-84
2023/12/08 00:45:53;;;;;;;15.30;11.33;;;0.10;99.90;;;;;;6250683;22;20184;-84
2023/12/08 00:48:19;;;;;;;17.40;9.77;;;0.10;99.90;;;;;;6249930;22;20243;-85
2023/12/08 00:50:45;;;;;;;16.03;10.17;;;0.20;99.90;;;;;;6276764;22;20157;-85
2023/12/08 00:53:11;;;;;;;15.83;10.43;;;0.20;99.90;;;;;;6278165;22;20446;-85
2023/12/08 00:55:36;;;;;;;14.63;9.87;;;0.20;99.90;;;;;;6250863;22;20152;-85
2023/12/08 00:58:02;;;;;;;13.30;9.80;;;0.20;99.90;;;;;;6276668;22;20515;-85
2023/12/08 01:00:28;;;;;;;13.90;9.77;;;0.20;99.90;;;;;;6278168;22;20148;-85
2023/12/08 01:02:53;;;;;;;14.73;10.17;;;0.30;99.90;;;;;;6277929;22;20179;-86
2023/12/08 01:05:19;;;;;;;14.17;10.07;;;0.20;99.90;;;;;;6277979;22;20266;-85
2023/12/08 01:07:47;;;;;;;14.67;10.23;;;0.20;99.90;;;;;;6278073;22;20163;-85
2023/12/08 01:10:12;;;;;;;14.10;10.37;;;0.20;99.90;;;;;;6278010;22;20153;-86
2023/12/08 01:12:38;;;;;;;14.77;10.17;;;0.20;99.90;;;;;;6251018;22;20160;-86
2023/12/08 01:15:05;;;;;;;15.93;10.33;;;0.20;99.90;;;;;;6278137;22;20149;-85
2023/12/08 01:17:31;;;;;;;15.50;10.20;;;0.20;99.90;;;;;;6250212;22;20277;-86
2023/12/08 01:19:57;;;;;;;13.97;9.93;;;0.20;99.90;;;;;;6251032;22;20502;-87
2023/12/08 01:22:27;;;;;;;14.17;9.57;;;0.30;99.90;;;;;;6278313;22;20145;-85
2023/12/08 01:24:54;;;;;;;15.60;9.83;;;0.30;99.90;;;;;;6278056;22;20153;-87
2023/12/08 01:27:20;;;;;;;15.30;9.87;;;0.40;99.90;;;;;;6250879;22;20283;-85
2023/12/08 01:29:45;;;;;;;15.73;9.93;;;0.40;99.90;;;;;;6276544;22;20191;-87
2023/12/08 01:32:11;;;;;;;14.77;10.20;;;0.40;99.90;;;;;;6276072;22;20620;-85
2023/12/08 01:34:37;;;;;;;15.00;10.13;;;0.40;99.90;;;;;;6251418;22;20156;-86
2023/12/08 01:37:03;;;;;;;13.03;9.90;;;0.40;99.90;;;;;;6250400;22;20157;-85
2023/12/08 01:39:28;;;;;;;16.10;9.87;;;0.40;99.90;;;;;;6278089;22;20149;-85
2023/12/08 01:41:54;;;;;;;16.17;10.53;;;0.40;99.90;;;;;;6250581;22;20250;-85
2023/12/08 01:44:20;;;;;;;15.27;10.40;;;0.40;99.90;;;;;;6277845;22;20152;-85
2023/12/08 01:46:48;;;;;;;13.80;9.73;;;0.40;99.90;;;;;;6250527;22;20610;-85
2023/12/08 01:49:16;;;;;;;13.87;10.40;;;0.40;99.90;;;;;;6277485;22;20145;-85
2023/12/08 01:51:43;;;;;;;18.60;10.70;;;0.40;99.90;;;;;;6278090;22;20198;-85
2023/12/08 01:54:10;;;;;;;14.50;10.27;;;0.40;99.90;;;;;;6252789;22;20212;-85
2023/12/08 01:56:36;;;;;;;17.83;11.10;;;0.30;99.90;;;;;;6279661;22;20202;-85
2023/12/08 01:59:03;;;;;;;15.50;11.03;;;0.30;99.90;;;;;;6252753;22;20210;-86
2023/12/08 02:01:29;;;;;;;15.23;10.60;;;0.30;99.90;;;;;;6252804;22;20159;-84
2023/12/08 02:03:56;;;;;;;14.73;10.33;;;0.30;99.90;;;;;;6252280;22;20515;-84
2023/12/08 02:06:22;;;;;;;15.90;10.80;;;0.30;99.90;;;;;;6279837;22;20187;-85
2023/12/08 02:08:48;;;;;;;17.73;11.53;;;0.20;99.90;;;;;;6279947;22;20145;-84
2023/12/08 02:11:14;;;;;;;16.30;11.23;;;0.30;99.90;;;;;;6252942;22;20497;-84
2023/12/08 02:13:41;;;;;;;17.77;11.70;;;0.30;99.90;;;;;;6253274;22;20575;-85
2023/12/08 02:16:11;;;;;;;13.70;10.37;;;0.30;99.90;;;;;;6255192;22;20247;-86
2023/12/08 02:18:38;;;;;;;13.80;10.30;;;0.20;99.90;;;;;;6281537;22;20251;-86
2023/12/08 02:21:08;;;;;;;15.73;11.23;;;0.30;99.90;;;;;;6254071;22;20160;-85
2023/12/08 02:23:37;;;;;;;14.90;10.63;;;0.20;99.90;;;;;;6280979;22;20144;-86
2023/12/08 02:26:05;;;;;;;13.87;10.57;;;0.20;99.90;;;;;;6252937;22;20283;-86
2023/12/08 02:28:31;;;;;;;16.63;11.37;;;0.20;99.90;;;;;;6280882;22;20149;-86
2023/12/08 02:30:58;;;;;;;14.73;11.03;;;0.20;99.90;;;;;;6253183;22;20243;-87
2023/12/08 02:33:31;;;;;;;17.43;11.50;;;0.10;99.90;;;;;;6280334;22;20186;-86
2023/12/08 02:36:00;;;;;;;16.97;12.30;;;0.00;99.90;;;;;;6280109;22;20149;-88
2023/12/08 02:38:28;;;;;;;16.67;11.53;;;-0.10;99.90;;;;;;6253347;22;20587;-86
2023/12/08 02:40:56;;;;;;;16.77;11.63;;;-0.10;99.90;;;;;;6253271;22;20163;-86
2023/12/08 02:43:22;;;;;;;18.43;11.73;;;-0.10;99.90;;;;;;6280578;22;20220;-86
2023/12/08 02:45:48;;;;;;;17.43;11.20;;;-0.10;99.90;;;;;;6280067;22;20540;-85
2023/12/08 02:48:14;;;;;;;17.10;12.47;;;-0.10;99.90;;;;;;6253026;22;20170;-86
2023/12/08 02:50:42;;;;;;;18.20;12.37;;;-0.10;99.90;;;;;;6253264;22;20468;-85
2023/12/08 02:53:08;;;;;;;19.70;12.80;;;-0.20;99.90;;;;;;6280215;22;20156;-85
2023/12/08 02:55:34;;;;;;;15.90;11.80;;;-0.20;99.90;;;;;;6279858;22;20192;-85
2023/12/08 02:58:00;;;;;;;17.83;11.37;;;-0.30;99.90;;;;;;6253327;22;20499;-85
2023/12/08 03:00:26;;;;;;;16.83;11.23;;;-0.20;99.90;;;;;;6279897;22;20152;-85
2023/12/08 03:02:52;;;;;;;15.17;10.27;;;-0.20;99.90;;;;;;6252159;22;20584;-88
2023/12/08 03:05:18;;;;;;;14.70;10.03;;;-0.20;99.90;;;;;;6278933;22;20178;-87
2023/12/08 03:07:44;;;;;;;14.77;9.30;;;-0.20;99.90;;;;;;6252556;22;20171;-87
2023/12/08 03:10:09;;;;;;;11.43;8.87;;;0.00;99.90;;;;;;6279789;22;20241;-87
2023/12/08 03:12:35;;;;;;;11.83;8.87;;;0.10;99.90;;;;;;6279795;22;20141;-87
2023/12/08 03:15:01;;;;;;;13.70;9.03;;;0.10;99.90;;;;;;6277836;22;20198;-86
2023/12/08 03:17:27;;;;;;;11.47;8.33;;;0.20;99.90;;;;;;6278460;22;20184;-86
2023/12/08 03:19:52;;;;;;;11.67;7.97;;;0.20;99.90;;;;;;6252297;22;20183;-87
2023/12/08 03:22:18;;;;;;;11.27;8.30;;;0.30;99.90;;;;;;6252629;22;20564;-88
2023/12/08 03:24:44;;;;;;;11.37;7.77;;;0.30;99.90;;;;;;6252599;22;20214;-88
2023/12/08 03:27:10;;;;;;;11.10;7.53;;;0.40;99.90;;;;;;6252310;22;20190;-88
2023/12/08 03:29:40;;;;;;;15.00;8.07;;;0.40;99.90;;;;;;6252392;22;20156;-87
2023/12/08 03:32:06;;;;;;;12.03;8.00;;;0.40;99.90;;;;;;6279700;22;20148;-88
2023/12/08 03:34:32;;;;;;;8.77;6.97;;;0.50;99.90;;;;;;6279218;22;20209;-88
2023/12/08 03:36:58;;;;;;;10.10;7.30;;;0.60;99.90;;;;;;6279291;22;20227;-88
2023/12/08 03:39:23;;;;;;;10.90;7.40;;;0.60;99.90;;;;;;6252526;22;20574;-89
2023/12/08 03:41:49;;;;;;;9.67;6.80;;;0.60;99.90;;;;;;6252569;22;20149;-86
2023/12/08 03:44:15;;;;;;;12.17;7.47;;;0.60;99.90;;;;;;6279317;22;20183;-88
2023/12/08 03:46:44;;;;;;;11.33;7.77;;;0.70;99.90;;;;;;6277741;22;20199;-90
2023/12/08 03:49:10;;;;;;;10.50;7.53;;;0.70;99.90;;;;;;6251932;22;20153;-87
2023/12/08 03:51:37;;;;;;;8.63;6.67;;;0.70;99.90;;;;;;6252524;22;20168;-87
2023/12/08 03:54:03;;;;;;;12.80;8.13;;;0.80;99.90;;;;;;6252288;22;20153;-87
2023/12/08 03:56:28;;;;;;;13.07;8.23;;;0.80;99.90;;;;;;6279359;22;20163;-90
2023/12/08 03:58:54;;;;;;;11.07;7.97;;;0.80;99.90;;;;;;6252409;22;20180;-85
2023/12/08 04:01:20;;;;;;;11.10;7.53;;;0.80;99.90;;;;;;6252188;22;20499;-87
2023/12/08 04:03:46;;;;;;;9.27;6.90;;;0.70;99.90;;;;;;6252200;22;20196;-88
2023/12/08 04:06:12;;;;;;;11.97;8.07;;;0.70;99.90;;;;;;6252045;22;20180;-90
2023/12/08 04:08:38;;;;;;;11.23;8.47;;;0.70;99.90;;;;;;6279534;22;20217;-89
2023/12/08 04:11:05;;;;;;;11.93;8.13;;;0.70;99.90;;;;;;6279480;22;20574;-86
2023/12/08 04:13:30;;;;;;;10.93;8.67;;;0.70;99.90;;;;;;6279206;22;20571;-89
2023/12/08 04:15:56;;;;;;;11.37;8.43;;;0.60;99.90;;;;;;6251472;22;20160;-89
2023/12/08 04:18:22;;;;;;;12.37;8.27;;;0.70;99.90;;;;;;6251539;22;20200;-88
2023/12/08 04:20:48;;;;;;;11.83;8.53;;;0.70;99.90;;;;;;6252369;22;20161;-88
2023/12/08 04:23:13;;;;;;;12.43;8.40;;;0.70;99.90;;;;;;6252599;22;20613;-90
2023/12/08 04:25:39;;;;;;;12.23;8.83;;;0.70;99.90;;;;;;6251685;22;20208;-89
2023/12/08 04:28:05;;;;;;;12.23;8.77;;;0.60;99.90;;;;;;6252619;22;20186;-90
2023/12/08 04:30:31;;;;;;;12.70;9.00;;;0.60;99.90;;;;;;6252093;22;20152;-90
2023/12/08 04:32:57;;;;;;;12.93;9.40;;;0.60;99.90;;;;;;6251805;22;20156;-91
2023/12/08 04:35:24;;;;;;;13.47;9.50;;;0.60;99.90;;;;;;6277302;22;20568;-88
2023/12/08 04:37:50;;;;;;;15.47;9.70;;;0.60;99.90;;;;;;6277671;22;20180;-85
2023/12/08 04:40:17;;;;;;;14.77;9.57;;;0.60;99.90;;;;;;6277442;22;20460;-88
2023/12/08 04:42:44;;;;;;;15.43;10.07;;;0.60;99.90;;;;;;6251772;22;20149;-88
2023/12/08 04:45:13;;;;;;;13.47;9.87;;;0.60;99.90;;;;;;6251742;22;20153;-86
2023/12/08 04:47:39;;;;;;;14.23;9.73;;;0.60;99.90;;;;;;6278566;22;20475;-85
2023/12/08 04:50:05;;;;;;;15.13;11.00;;;0.60;99.90;;;;;;6277212;22;20180;-86
2023/12/08 04:52:32;;;;;;;14.80;10.13;;;0.60;99.90;;;;;;6251736;22;20156;-88
2023/12/08 04:54:58;;;;;;;15.17;10.17;;;0.60;99.90;;;;;;6278519;22;20145;-89
2023/12/08 04:57:24;;;;;;;14.27;9.57;;;0.70;99.90;;;;;;6278482;22;20235;-88
2023/12/08 04:59:50;;;;;;;15.57;10.83;;;0.70;99.90;;;;;;6278657;22;20187;-86
2023/12/08 05:02:16;;;;;;;14.87;10.60;;;0.60;99.90;;;;;;6251589;22;20160;-88
2023/12/08 05:04:42;;;;;;;15.30;10.30;;;0.70;99.90;;;;;;6251440;22;20164;-87
2023/12/08 05:07:08;;;;;;;14.33;10.50;;;0.70;99.90;;;;;;6278286;22;20237;-89
2023/12/08 05:09:33;;;;;;;14.27;9.87;;;0.70;99.90;;;;;;6279456;22;20176;-89
2023/12/08 05:11:59;;;;;;;16.57;10.40;;;0.70;99.90;;;;;;6251290;22;20226;-87
2023/12/08 05:14:25;;;;;;;13.07;9.40;;;0.70;99.90;;;;;;6251762;22;20160;-88
2023/12/08 05:16:50;;;;;;;14.63;10.43;;;0.70;99.90;;;;;;6277956;22;20188;-90
2023/12/08 05:19:16;;;;;;;16.13;10.37;;;0.70;99.90;;;;;;6251324;22;20156;-90
2023/12/08 05:21:42;;;;;;;13.67;9.33;;;0.70;99.90;;;;;;6278420;22;20183;-91
2023/12/08 05:24:08;;;;;;;13.53;9.27;;;0.70;99.90;;;;;;6278619;22;20155;-92
2023/12/08 05:26:34;;;;;;;15.77;10.03;;;0.70;99.90;;;;;;6250924;22;20196;-88
2023/12/08 05:28:59;;;;;;;13.27;9.67;;;0.70;99.90;;;;;;6251503;22;20155;-87
2023/12/08 05:31:25;;;;;;;14.30;9.30;;;0.70;99.90;;;;;;6251556;22;20163;-89
2023/12/08 05:33:51;;;;;;;16.03;10.07;;;0.80;99.90;;;;;;6251090;22;20145;-91
2023/12/08 05:36:17;;;;;;;15.67;10.50;;;0.80;99.90;;;;;;6249729;22;20233;-88
2023/12/08 05:38:43;;;;;;;14.70;10.67;;;0.80;99.90;;;;;;6250449;22;20163;-90
2023/12/08 05:41:09;;;;;;;15.27;10.20;;;0.80;99.90;;;;;;6278122;22;20149;-87
2023/12/08 05:43:34;;;;;;;15.17;9.80;;;0.80;99.90;;;;;;6251347;22;20183;-86
2023/12/08 05:46:00;;;;;;;13.87;10.30;;;0.80;99.90;;;;;;6250823;22;20223;-89
2023/12/08 05:48:27;;;;;;;15.93;10.00;;;0.70;99.90;;;;;;6251332;22;20178;-89
2023/12/08 05:50:53;;;;;;;15.87;10.37;;;0.70;99.90;;;;;;6278191;22;20231;-91
2023/12/08 05:53:19;;;;;;;14.63;10.27;;;0.80;99.90;;;;;;6250173;22;20149;-90
2023/12/08 05:55:44;;;;;;;15.33;10.63;;;0.80;99.90;;;;;;6251050;22;20157;-88
2023/12/08 05:58:10;;;;;;;14.93;10.50;;;0.80;99.90;;;;;;6251370;22;20182;-89
2023/12/08 06:00:36;;;;;;;13.37;9.70;;;0.70;99.90;;;;;;6278252;22;20631;-90
2023/12/08 06:03:02;;;;;;;14.30;10.03;;;0.70;99.90;;;;;;6276571;22;20164;-87
2023/12/08 06:05:27;;;;;;;16.20;10.33;;;0.70;99.90;;;;;;6278268;22;20499;-90
2023/12/08 06:07:53;;;;;;;14.07;9.87;;;0.80;99.90;;;;;;6250918;22;20172;-91
2023/12/08 06:10:21;;;;;;;15.00;10.73;;;0.80;99.90;;;;;;6250764;22;20152;-90
2023/12/08 06:12:47;;;;;;;13.77;10.07;;;0.80;99.90;;;;;;6251079;22;20164;-91
2023/12/08 06:15:12;;;;;;;13.23;9.87;;;0.80;99.90;;;;;;6250548;22;20459;-90
2023/12/08 06:17:38;;;;;;;15.80;10.00;;;0.80;99.90;;;;;;6250729;22;20188;-91
2023/12/08 06:20:04;;;;;;;13.23;9.77;;;0.80;99.90;;;;;;6276275;22;20161;-89
2023/12/08 06:22:31;;;;;;;15.10;10.20;;;0.80;99.90;;;;;;6278033;22;20149;-88
2023/12/08 06:24:57;;;;;;;16.37;10.27;;;0.90;99.90;;;;;;6250987;22;20571;-90
2023/12/08 06:27:22;;;;;;;13.97;10.03;;;0.80;99.90;;;;;;6250775;22;20314;-90
2023/12/08 06:29:50;;;;;;;19.10;10.03;;;0.80;99.90;;;;;;6250845;22;20155;-89
2023/12/08 06:32:18;;;;;;;15.37;10.90;;;0.80;99.90;;;;;;6250701;22;20170;-88
2023/12/08 06:34:46;;;;;;;19.03;10.60;;;0.80;99.90;;;;;;6277120;22;20141;-88
2023/12/08 06:37:12;;;;;;;15.20;10.83;;;0.80;99.90;;;;;;6249839;22;20192;-88
2023/12/08 06:39:39;;;;;;;15.17;10.13;;;0.80;99.90;;;;;;6279023;22;20173;-88
2023/12/08 06:42:06;;;;;;;14.83;10.17;;;0.70;99.90;;;;;;6279943;22;20148;-88
2023/12/08 06:44:32;;;;;;;14.33;9.60;;;0.70;99.90;;;;;;6280862;22;20579;-89
2023/12/08 06:46:58;;;;;;;13.77;9.87;;;0.70;99.90;;;;;;6252681;22;20194;-89
2023/12/08 06:49:24;;;;;;;14.33;9.57;;;0.70;99.90;;;;;;6253245;22;20157;-89
2023/12/08 06:51:51;;;;;;;13.43;9.60;;;0.70;99.90;;;;;;6252981;22;20210;-87
2023/12/08 06:54:18;;;;;;;13.37;9.40;;;0.80;99.90;;;;;;6280692;22;20150;-87
2023/12/08 06:56:44;;;;;;;14.93;9.87;;;0.70;99.90;;;;;;6280891;22;20156;-88
2023/12/08 06:59:10;;;;;;;15.43;10.00;;;0.70;99.90;;;;;;6280583;22;20149;-87
2023/12/08 07:01:36;;;;;;;14.63;10.00;;;0.70;99.90;;;;;;6253289;22;20263;-87
2023/12/08 07:04:05;;;;;;;13.77;10.13;;;0.80;99.90;;;;;;6252787;22;20310;-88
2023/12/08 07:06:31;;;;;;;16.47;10.77;;;0.80;99.90;;;;;;6280350;22;20675;-87
2023/12/08 07:08:57;;;;;;;16.77;11.57;;;0.80;99.90;;;;;;6280806;22;20148;-88
2023/12/08 07:11:23;;;;;;;15.30;10.73;;;0.80;99.90;;;;;;6253582;22;20156;-86
2023/12/08 07:13:49;;;;;;;14.67;10.80;;;0.80;99.90;;;;;;6253660;22;20149;-87
2023/12/08 07:16:15;;;;;;;17.10;11.20;;;0.80;99.90;;;;;;6251905;22;20152;-86
2023/12/08 07:18:41;;;;;;;15.13;10.23;;;0.80;99.90;;;;;;6278963;22;20196;-85
2023/12/08 07:21:07;;;;;;;18.67;11.83;;;0.80;99.90;;;;;;6279767;22;20152;-88
2023/12/08 07:23:33;;;;;;;17.97;11.60;;;0.80;99.90;;;;;;6280210;22;20160;-88
2023/12/08 07:25:59;;;;;;;18.20;11.93;;;0.80;99.90;;;;;;6252239;22;20270;-85
2023/12/08 07:28:25;;;;;;;15.73;11.20;;;0.80;99.90;;;;;;6279393;22;20179;-86
2023/12/08 07:30:51;;;;;;;19.77;12.00;;;0.80;99.90;;;;;;6253280;22;20523;-85
2023/12/08 07:33:17;;;;;;;16.07;11.20;;;0.80;99.90;;;;;;6251854;22;20492;-86
2023/12/08 07:35:42;;;;;;;15.73;11.77;;;0.80;99.90;;;;;;6280061;22;20145;-87
2023/12/08 07:38:08;;;;;;;16.77;11.73;;;0.80;99.90;;;;;;6252730;22;20191;-87
2023/12/08 07:40:34;;;;;;;17.23;12.00;;;0.80;99.90;;;;;;6279402;22;20447;-87
2023/12/08 07:43:00;;;;;;;15.33;11.50;;;0.80;99.90;;;;;;6250826;22;20160;-89
2023/12/08 07:45:25;;;;;;;17.30;12.00;;;0.80;99.90;;;;;;6251774;22;20214;-87
2023/12/08 07:47:54;;;;;;;16.63;11.20;;;0.80;99.90;;;;;;6252460;22;20223;-88
2023/12/08 07:50:20;;;;;;;15.40;11.20;;;0.80;99.90;;;;;;6253409;22;20149;-90
2023/12/08 07:52:47;;;;;;;16.57;11.67;;;0.80;99.90;;;;;;6253131;22;20182;-90
2023/12/08 07:55:13;;;;;;;17.90;12.27;;;0.80;99.90;;;;;;6253750;22;20183;-91
2023/12/08 07:57:39;;;;;;;18.37;12.63;;;0.80;99.90;;;;;;6253723;22;20159;-88
2023/12/08 08:00:10;;;;;;;16.33;11.17;;;0.80;99.90;;;;;;6283689;22;20148;-87
2023/12/08 08:02:40;;;;;;;19.00;11.93;;;0.80;99.90;;;;;;6252324;22;20163;-89
2023/12/08 08:05:06;;;;;;;18.87;11.50;;;0.80;99.90;;;;;;6279515;22;20145;-88
2023/12/08 08:07:32;;;;;;;16.13;11.97;;;0.80;99.90;;;;;;6252364;22;20286;-89
2023/12/08 08:09:57;;;;;;;16.57;11.97;;;0.80;99.90;;;;;;6279496;22;20152;-88
2023/12/08 08:12:32;;;;;;;17.03;11.60;;;0.80;99.90;;;;;;6279963;22;20168;-88
2023/12/08 08:14:58;;;;;;;16.80;11.80;;;0.80;99.90;;;;;;6252548;22;20152;-89
2023/12/08 08:17:23;;;;;;;18.00;12.50;;;0.80;99.90;;;;;;6251935;22;20205;-91
2023/12/08 08:19:49;;;;;;;19.77;12.87;;;0.80;99.90;;;;;;6279137;22;20284;-87
2023/12/08 08:22:15;;;;;;;17.20;12.20;;;0.80;99.90;;;;;;6279530;22;20578;-88
2023/12/08 08:24:41;;;;;;;18.57;12.40;;;0.80;99.90;;;;;;6279441;22;20152;-88
2023/12/08 08:27:06;;;;;;;16.60;12.23;;;0.90;99.90;;;;;;6252187;22;20340;-90
2023/12/08 08:29:32;;;;;;;19.83;13.07;;;0.90;99.90;;;;;;6250647;22;20160;-88
2023/12/08 08:31:58;;;;;;;16.93;11.67;;;0.80;99.90;;;;;;6251310;22;20165;-86
2023/12/08 08:34:24;;;;;;;19.10;12.50;;;0.80;99.90;;;;;;6250764;22;20164;-89
2023/12/08 08:36:49;;;;;;;17.83;12.43;;;0.90;99.90;;;;;;6250799;22;20152;-88
2023/12/08 08:39:15;;;;;;;16.83;12.03;;;0.80;99.90;;;;;;6277586;22;20575;-87
2023/12/08 08:41:45;;;;;;;18.47;12.37;;;0.80;99.90;;;;;;6278898;22;20167;-88
2023/12/08 08:44:12;;;;;;;17.67;12.07;;;0.80;99.90;;;;;;6278497;22;20145;-87
2023/12/08 08:46:40;;;;;;;18.97;11.50;;;0.90;99.90;;;;;;6251223;22;20188;-89
2023/12/08 08:49:06;;;;;;;19.97;12.13;;;0.90;99.90;;;;;;6249673;22;20617;-89
2023/12/08 08:51:32;;;;;;;14.43;10.77;;;0.90;99.90;;;;;;6278435;22;20156;-87
2023/12/08 08:53:58;;;;;;;19.70;12.03;;;0.90;99.90;;;;;;6250988;22;20166;-88
2023/12/08 08:56:23;;;;;;;15.13;11.53;;;0.90;99.90;;;;;;6251282;22;20152;-88
2023/12/08 08:58:49;;;;;;;18.43;12.27;;;0.90;99.90;;;;;;6278032;22;20564;-85
2023/12/08 09:01:15;;;;;;;15.97;11.07;;;0.90;99.90;;;;;;6277989;22;20235;-86
2023/12/08 09:03:41;;;;;;;16.00;11.37;;;0.90;99.90;;;;;;6278094;22;20149;-89
2023/12/08 09:06:07;;;;;;;15.20;10.90;;;0.90;99.90;;;;;;6250805;22;20187;-88
2023/12/08 09:08:33;;;;;;;15.77;10.87;;;0.90;99.90;;;;;;6278273;22;20214;-88
2023/12/08 09:10:58;;;;;;;18.13;11.57;;;1.00;99.90;;;;;;6278154;22;20270;-89
2023/12/08 09:13:24;;;;;;;15.93;10.30;;;1.00;99.90;;;;;;6278277;22;20145;-88
2023/12/08 09:15:51;;;;;;;14.37;10.47;;;1.00;99.90;;;;;;6251081;22;20621;-89
2023/12/08 09:18:16;;;;;;;14.30;10.63;;;1.00;99.90;;;;;;6250518;22;20218;-89
2023/12/08 09:20:43;;;;;;;14.97;10.73;;;1.00;99.90;;;;;;6250437;22;20164;-87
2023/12/08 09:23:09;;;;;;;14.20;9.60;;;1.10;99.90;;;;;;6251159;22;20264;-88
2023/12/08 09:25:35;;;;;;;13.87;9.80;;;1.10;99.90;;;;;;6250722;22;20199;-88
2023/12/08 09:28:02;;;;;;;16.13;9.87;;;1.10;99.90;;;;;;6278053;22;20172;-87
2023/12/08 09:30:28;;;;;;;16.17;9.60;;;1.10;99.90;;;;;;6251054;22;20156;-88
2023/12/08 09:32:53;;;;;;;13.73;10.13;;;1.20;99.90;;;;;;6276874;22;20155;-89
2023/12/08 09:35:19;;;;;;;15.13;10.20;;;1.10;99.90;;;;;;6250826;22;20157;-88
2023/12/08 09:37:45;;;;;;;13.23;9.63;;;1.20;99.90;;;;;;6276273;22;20243;-87
2023/12/08 09:40:15;;;;;;;13.23;9.33;;;1.20;99.90;;;;;;6252276;22;20156;-90
2023/12/08 09:42:57;;;;;;;16.77;10.67;;;1.20;99.90;;;;;;6276717;22;20202;-89
2023/12/08 09:45:24;;;;;;;14.87;9.87;;;1.10;99.90;;;;;;6251145;22;20210;-89
2023/12/08 09:47:54;;;;;;;15.40;10.57;;;1.20;99.90;;;;;;6251110;22;20164;-88
2023/12/08 09:50:20;;;;;;;15.67;10.70;;;1.20;99.90;;;;;;6278476;22;20149;-88
2023/12/08 09:52:46;;;;;;;16.67;10.13;;;1.20;99.90;;;;;;6251593;22;20195;-88
2023/12/08 09:55:13;;;;;;;15.50;10.93;;;1.20;99.90;;;;;;6250890;22;20149;-88
2023/12/08 09:57:41;;;;;;;17.77;11.40;;;1.10;99.90;;;;;;6277896;22;20147;-88
2023/12/08 10:00:13;;;;;;;14.93;10.90;;;1.10;99.90;;;;;;6250583;22;20528;-89
2023/12/08 10:02:40;;;;;;;16.63;11.23;;;1.00;99.90;;;;;;6250873;22;20148;-87
2023/12/08 10:05:07;;;;;;;20.00;11.93;;;1.00;99.90;;;;;;6250562;22;20152;-87
2023/12/08 10:07:34;;;;;;;17.70;11.90;;;0.90;99.90;;;;;;6277931;22;20192;-87
2023/12/08 10:10:00;;;;;;;17.93;12.70;;;0.80;99.90;;;;;;6278099;22;20145;-87
2023/12/08 10:12:27;;;;;;;19.53;12.67;;;0.70;99.90;;;;;;6278136;22;20227;-87
2023/12/08 10:14:57;;;;;;;18.07;12.43;;;0.70;99.90;;;;;;6252599;22;20562;-87
2023/12/08 10:17:23;;;;;;;21.47;13.83;;;0.70;99.90;;;;;;6251911;22;20296;-86
2023/12/08 10:19:52;;;;;;;20.97;12.63;;;0.70;99.90;;;;;;6252266;22;20163;-87
2023/12/08 10:22:18;;;;;;;18.63;13.43;;;0.60;99.90;;;;;;6252860;22;20161;-87
2023/12/08 10:24:45;;;;;;;19.43;13.50;;;0.60;99.90;;;;;;6280164;22;20148;-88
2023/12/08 10:27:11;;;;;;;22.10;14.27;;;0.60;99.90;;;;;;6252581;22;20192;-87
2023/12/08 10:29:37;;;;;;;20.10;13.50;;;0.60;99.90;;;;;;6253013;22;20578;-88
2023/12/08 10:32:05;;;;;;;20.87;13.57;;;0.50;99.90;;;;;;6280001;22;20153;-89
2023/12/08 10:34:33;;;;;;;17.47;12.73;;;0.50;99.90;;;;;;6252384;22;20163;-89
2023/12/08 10:37:00;;;;;;;21.77;13.97;;;0.50;99.90;;;;;;6279821;22;20156;-88
2023/12/08 10:39:26;;;;;;;20.60;13.90;;;0.50;99.90;;;;;;6280167;22;20456;-89
2023/12/08 10:41:52;;;;;;;22.93;14.20;;;0.50;99.90;;;;;;6279892;22;20148;-89
2023/12/08 10:44:22;;;;;;;20.57;13.47;;;0.50;99.90;;;;;;6279696;22;20149;-87
2023/12/08 10:46:50;;;;;;;18.40;13.00;;;0.50;99.90;;;;;;6252400;22;20195;-89
2023/12/08 10:49:19;;;;;;;22.73;15.03;;;0.60;99.90;;;;;;6252819;22;20161;-89
2023/12/08 10:51:49;;;;;;;22.37;13.83;;;0.60;99.90;;;;;;6252706;22;20213;-87
2023/12/08 10:54:16;;;;;;;19.97;13.30;;;0.50;99.90;;;;;;6253411;22;20152;-87
2023/12/08 10:56:44;;;;;;;22.40;13.50;;;0.60;99.90;;;;;;6253856;22;20250;-88
2023/12/08 10:59:11;;;;;;;21.17;13.77;;;0.50;99.90;;;;;;6253724;22;20157;-88
2023/12/08 11:01:39;;;;;;;21.17;13.63;;;0.50;99.90;;;;;;6253338;22;20159;-88
2023/12/08 11:04:10;;;;;;;22.70;13.93;;;0.50;99.90;;;;;;6252808;22;20158;-90
2023/12/08 11:06:43;;;;;;;22.03;14.33;;;0.50;99.90;;;;;;6252956;22;20183;-87
2023/12/08 11:09:10;;;;;;;25.80;13.73;;;0.60;99.90;;;;;;6252894;22;20575;-91
2023/12/08 11:11:42;;;;;;;20.93;13.47;;;0.60;99.90;;;;;;6253679;22;20195;-88
2023/12/08 11:14:16;;;;;;;22.60;14.70;;;0.60;99.90;;;;;;6253384;22;20153;-89
2023/12/08 11:16:55;;;;;;;24.33;14.23;;;0.60;99.90;;;;;;6279827;22;20228;-89
2023/12/08 11:19:22;;;;;;;23.00;14.77;;;0.60;99.90;;;;;;6253179;22;20164;-91
2023/12/08 11:21:48;;;;;;;23.37;14.67;;;0.70;99.90;;;;;;6252790;22;20535;-90
2023/12/08 11:24:14;;;;;;;21.73;14.23;;;0.70;99.90;;;;;;6253111;22;20525;-90
2023/12/08 11:27:05;;;;;;;21.57;13.90;;;0.70;99.90;;;;;;6252935;22;20212;-90
2023/12/08 11:29:44;;;;;;;21.27;14.50;;;0.60;99.90;;;;;;6278576;22;20149;-90
2023/12/08 11:32:32;;;;;;;20.90;13.53;;;0.70;99.90;;;;;;6279518;22;20145;-88
2023/12/08 11:35:09;;;;;;;19.07;13.10;;;0.70;99.90;;;;;;6279128;22;20141;-88
2023/12/08 11:37:35;;;;;;;21.03;13.13;;;0.70;99.90;;;;;;6280152;22;20209;-90
2023/12/08 11:40:07;;;;;;;21.50;14.57;;;0.70;99.90;;;;;;6279707;22;20216;-89
2023/12/08 11:42:41;;;;;;;19.00;13.57;;;0.70;99.90;;;;;;6252875;22;20164;-88
2023/12/08 11:45:10;;;;;;;20.53;13.83;;;0.70;99.90;;;;;;6279497;22;20140;-89
2023/12/08 11:47:37;;;;;;;20.40;14.00;;;0.70;99.90;;;;;;6252738;22;20195;-90
2023/12/08 11:50:05;;;;;;;20.90;13.77;;;0.70;99.90;;;;;;6252129;22;20161;-92
2023/12/08 11:52:36;;;;;;;24.37;14.30;;;0.70;99.90;;;;;;6252456;22;20188;-89
2023/12/08 11:55:07;;;;;;;18.27;12.83;;;0.70;99.90;;;;;;6252104;22;20441;-89
2023/12/08 11:57:36;;;;;;;21.23;14.53;;;0.70;99.90;;;;;;6252472;22;20153;-90
2023/12/08 12:00:04;;;;;;;20.03;14.00;;;0.70;99.90;;;;;;6252226;22;20164;-91
2023/12/08 12:02:30;;;;;;;20.83;13.27;;;0.70;99.90;;;;;;6252291;22;20586;-92
2023/12/08 12:04:56;;;;;;;23.53;15.03;;;0.70;99.90;;;;;;6252129;22;20160;-92
2023/12/08 12:07:23;;;;;;;23.47;14.13;;;0.70;99.90;;;;;;6252043;22;20207;-91
2023/12/08 12:10:13;;;;;;;21.23;13.47;;;0.70;99.90;;;;;;6279444;22;20137;-87
2023/12/08 12:12:52;;;;;;;25.73;15.13;;;0.70;99.90;;;;;;6253309;22;20206;-91
2023/12/08 12:15:20;;;;;;;24.67;15.50;;;0.70;99.90;;;;;;6252573;22;20160;-89
2023/12/08 12:17:47;;;;;;;24.03;14.17;;;0.70;99.90;;;;;;6238557;23;20561;-90
2023/12/08 12:20:13;;;;;;;23.27;14.23;;;0.70;99.90;;;;;;6221873;23;20245;-92
2023/12/08 12:22:39;;;;;;;22.80;14.83;;;0.70;99.90;;;;;;6248612;23;20191;-91
2023/12/08 12:25:08;;;;;;;26.87;16.47;;;0.70;99.90;;;;;;6248163;23;20154;-89
2023/12/08 12:27:40;;;;;;;26.27;16.07;;;0.70;99.90;;;;;;6221481;23;20193;-90
2023/12/08 12:30:07;;;;;;;25.10;15.63;;;0.70;99.90;;;;;;6221201;23;20577;-86
2023/12/08 12:32:32;;;;;;;27.50;16.43;;;0.80;99.90;;;;;;6247653;23;20157;-86
2023/12/08 12:34:58;;;;;;;20.93;13.60;;;0.80;99.90;;;;;;6220163;23;20164;-88
2023/12/08 12:37:24;;;;;;;22.17;14.60;;;0.80;99.90;;;;;;6247303;23;20187;-89